Terminal Aerodrome Forecast
Issued by NWS Twin Cities, MN

Home | Current Version | Previous Version | Graphics & Text | Print | Product List | Glossary On
Versions: 1 2 3 4 5 6 7 8 9 10 11 12 13 14 15 16 17 18 19 20 21 22 23 24
901
FTUS43 KMPX 220959 AAC
TAFEAU
TAF AMD
KEAU 220959Z 2210/2306 08004KT 3SM BR SCT003
      TEMPO 2210/2212 1SM BR VV005
     FM221200 01005KT P6SM BKN007
     FM221800 24005KT P6SM BKN020 OVC050
     FM222100 31010KT P6SM SCT110=

USA.gov is the U.S. government's official web portal to all federal, state and local government web resources and services.